createdAt,value
2023-03-30T00:00:58.504Z,4.00
2023-03-30T00:03:27.197Z,4.07
2023-03-30T00:05:57.739Z,4.40
2023-03-30T00:08:28.810Z,3.88
2023-03-30T00:11:11.752Z,4.22
2023-03-30T00:13:38.612Z,3.80
2023-03-30T00:16:06.943Z,3.85
2023-03-30T00:18:34.394Z,3.55
2023-03-30T00:21:05.136Z,3.85
2023-03-30T00:23:32.308Z,3.95
2023-03-30T00:25:59.177Z,3.55
2023-03-30T00:28:30.959Z,3.63
2023-03-30T00:30:58.907Z,4.00
2023-03-30T00:33:41.361Z,3.97
2023-03-30T00:36:08.950Z,3.92
2023-03-30T00:38:35.676Z,3.83
2023-03-30T00:41:02.571Z,3.70
2023-03-30T00:43:29.576Z,3.83
2023-03-30T00:45:57.457Z,4.03
2023-03-30T00:48:34.485Z,3.70
2023-03-30T00:51:11.160Z,3.55
2023-03-30T00:53:41.483Z,3.47
2023-03-30T00:56:10.538Z,3.40
2023-03-30T00:58:39.624Z,3.00
2023-03-30T01:01:10.405Z,3.70
2023-03-30T01:03:43.605Z,3.22
2023-03-30T01:06:12.046Z,3.40
2023-03-30T01:08:40.960Z,3.85
2023-03-30T01:11:08.281Z,3.75
2023-03-30T01:13:38.207Z,3.97
2023-03-30T01:16:36.017Z,4.45
2023-03-30T01:19:29.425Z,4.43
2023-03-30T01:22:30.942Z,4.55
2023-03-30T01:25:23.986Z,5.55
2023-03-30T01:28:18.549Z,5.05
2023-03-30T01:31:00.530Z,4.78
2023-03-30T01:33:32.357Z,3.80
2023-03-30T01:36:36.615Z,4.13
2023-03-30T01:39:22.317Z,4.30
2023-03-30T01:44:45.919Z,3.80
2023-03-30T01:47:28.567Z,4.10
2023-03-30T01:49:58.239Z,4.15
2023-03-30T01:52:32.575Z,4.25
2023-03-30T01:55:10.132Z,3.57
2023-03-30T01:58:00.332Z,3.67
2023-03-30T02:00:28.712Z,3.10
2023-03-30T02:03:02.529Z,3.60
2023-03-30T02:05:30.749Z,3.45
2023-03-30T02:08:03.511Z,3.30
2023-03-30T02:10:33.700Z,3.38
2023-03-30T02:13:00.984Z,3.65
2023-03-30T02:15:41.971Z,3.90
2023-03-30T02:18:09.896Z,3.72
2023-03-30T02:20:37.070Z,3.83
2023-03-30T02:23:05.968Z,3.50
2023-03-30T02:25:38.278Z,3.65
2023-03-30T02:28:07.474Z,4.00
2023-03-30T02:30:35.288Z,3.92
2023-03-30T02:33:02.528Z,3.97
2023-03-30T02:35:57.854Z,3.70
2023-03-30T02:39:05.942Z,3.70
2023-03-30T02:42:10.076Z,3.75
2023-03-30T02:44:51.700Z,3.80
2023-03-30T02:47:31.972Z,4.40
2023-03-30T02:50:22.070Z,4.28
2023-03-30T02:52:59.084Z,4.43
2023-03-30T02:55:34.460Z,4.50
2023-03-30T02:58:18.506Z,3.92
2023-03-30T03:01:01.780Z,3.72
2023-03-30T03:03:39.298Z,3.92
2023-03-30T03:06:09.271Z,4.03
2023-03-30T03:08:39.644Z,3.80
2023-03-30T03:11:09.644Z,4.00
2023-03-30T03:13:37.242Z,4.30
2023-03-30T03:16:05.299Z,4.18
2023-03-30T03:18:32.049Z,4.40
2023-03-30T03:20:59.208Z,3.88
2023-03-30T03:23:25.975Z,4.05
2023-03-30T03:25:52.858Z,4.05
2023-03-30T03:28:19.564Z,4.68
2023-03-30T03:30:46.255Z,4.07
2023-03-30T03:33:12.933Z,4.05
2023-03-30T03:35:40.176Z,4.25
2023-03-30T03:38:07.779Z,3.70
2023-03-30T03:40:34.462Z,3.92
2023-03-30T03:43:00.988Z,3.92
2023-03-30T03:45:27.543Z,3.97
2023-03-30T03:47:54.632Z,3.88
2023-03-30T03:50:21.818Z,3.40
2023-03-30T03:52:48.379Z,3.83
2023-03-30T03:55:15.101Z,4.22
2023-03-30T03:57:41.836Z,3.70
2023-03-30T04:00:16.289Z,4.50
2023-03-30T04:02:44.171Z,4.25
2023-03-30T04:05:11.567Z,4.40
2023-03-30T04:07:38.572Z,4.80
2023-03-30T04:10:06.446Z,5.05
2023-03-30T04:12:33.133Z,4.63
2023-03-30T04:14:59.708Z,3.83
2023-03-30T04:17:26.730Z,3.90
2023-03-30T04:19:56.358Z,3.50
2023-03-30T04:22:26.421Z,4.25
2023-03-30T04:24:53.877Z,3.42
2023-03-30T04:27:20.448Z,3.50
2023-03-30T04:29:47.012Z,3.88
2023-03-30T04:32:13.724Z,4.32
2023-03-30T04:34:43.066Z,3.78
2023-03-30T04:37:10.291Z,3.90
2023-03-30T04:39:37.361Z,3.92
2023-03-30T04:42:06.075Z,4.15
2023-03-30T04:44:32.697Z,3.90
2023-03-30T04:46:59.308Z,3.67
2023-03-30T04:49:27.406Z,4.32
2023-03-30T04:51:54.631Z,4.43
2023-03-30T04:54:21.356Z,4.97
2023-03-30T04:56:48.069Z,4.95
2023-03-30T04:59:14.698Z,5.00
2023-03-30T05:01:41.380Z,5.68
2023-03-30T05:04:08.335Z,4.88
2023-03-30T05:06:34.960Z,5.38
2023-03-30T05:09:01.562Z,4.63
2023-03-30T05:11:28.341Z,4.10
2023-03-30T05:13:54.993Z,4.18
2023-03-30T05:16:22.197Z,4.97
2023-03-30T05:18:51.346Z,5.80
2023-03-30T05:21:18.328Z,5.07
2023-03-30T05:23:44.988Z,4.55
2023-03-30T05:26:11.714Z,4.80
2023-03-30T05:28:38.481Z,5.45
2023-03-30T05:31:05.542Z,4.95
2023-03-30T05:33:32.375Z,4.10
2023-03-30T05:35:58.993Z,4.30
2023-03-30T05:38:25.827Z,3.92
2023-03-30T05:40:54.023Z,3.65
2023-03-30T05:43:21.267Z,3.90
2023-03-30T05:45:48.261Z,3.90
2023-03-30T05:48:15.184Z,4.53
2023-03-30T05:50:42.812Z,4.57
2023-03-30T05:53:09.496Z,4.00
2023-03-30T05:55:36.157Z,3.40
2023-03-30T05:58:03.853Z,3.90
2023-03-30T06:00:33.359Z,3.72
2023-03-30T06:03:00.378Z,3.35
2023-03-30T06:05:27.384Z,3.70
2023-03-30T06:07:54.323Z,3.78
2023-03-30T06:10:21.274Z,3.63
2023-03-30T06:12:47.841Z,3.78
2023-03-30T06:15:14.430Z,3.83
2023-03-30T06:17:41.007Z,4.30
2023-03-30T06:20:11.259Z,3.90
2023-03-30T06:22:41.509Z,4.15
2023-03-30T06:25:09.162Z,3.63
2023-03-30T06:27:37.166Z,3.58
2023-03-30T06:30:04.248Z,3.92
2023-03-30T06:32:30.895Z,4.63
2023-03-30T06:34:57.660Z,3.58
2023-03-30T06:37:24.377Z,3.90
2023-03-30T06:39:51.062Z,3.83
2023-03-30T06:42:17.682Z,3.83
2023-03-30T06:44:44.556Z,3.80
2023-03-30T06:47:11.199Z,3.85
2023-03-30T06:49:37.783Z,3.63
2023-03-30T06:52:05.681Z,3.70
2023-03-30T06:54:34.215Z,4.03
2023-03-30T06:57:01.128Z,4.05
2023-03-30T06:59:27.672Z,3.85
2023-03-30T07:01:54.404Z,3.47
2023-03-30T07:04:21.932Z,3.33
2023-03-30T07:06:48.608Z,3.10
2023-03-30T07:09:15.202Z,3.30
2023-03-30T07:11:41.900Z,3.42
2023-03-30T07:14:10.008Z,3.25
2023-03-30T07:16:36.847Z,3.03
2023-03-30T07:19:03.777Z,3.58
2023-03-30T07:21:30.516Z,2.92
2023-03-30T07:23:58.007Z,3.20
2023-03-30T07:26:24.586Z,3.08
2023-03-30T07:28:51.281Z,3.47
2023-03-30T07:31:19.918Z,3.40
2023-03-30T07:33:46.771Z,3.53
2023-03-30T07:36:13.597Z,3.42
2023-03-30T07:38:40.429Z,3.35
2023-03-30T07:41:12.688Z,3.17
2023-03-30T07:43:42.583Z,2.97
2023-03-30T07:46:12.025Z,3.40
2023-03-30T07:48:40.286Z,3.17
2023-03-30T07:51:10.107Z,3.65
2023-03-30T07:53:37.738Z,3.35
2023-03-30T07:56:04.876Z,3.00
2023-03-30T07:58:31.891Z,2.65
2023-03-30T08:00:58.652Z,2.72
2023-03-30T08:03:25.464Z,3.03
2023-03-30T08:05:56.522Z,2.88
2023-03-30T08:08:23.586Z,2.72
2023-03-30T08:10:50.775Z,2.85
2023-03-30T08:13:18.293Z,2.90
2023-03-30T08:15:47.028Z,3.30
2023-03-30T08:18:14.747Z,2.72
2023-03-30T08:20:43.129Z,3.10
2023-03-30T08:23:11.301Z,3.08
2023-03-30T08:25:38.516Z,2.90
2023-03-30T08:28:08.920Z,2.78
2023-03-30T08:30:35.603Z,3.40
2023-03-30T08:33:02.928Z,2.90
2023-03-30T08:35:29.585Z,3.53
2023-03-30T08:37:56.195Z,2.88
2023-03-30T08:40:23.141Z,3.53
2023-03-30T08:43:06.118Z,2.90
2023-03-30T08:45:43.058Z,3.30
2023-03-30T08:48:22.796Z,3.30
2023-03-30T08:51:05.776Z,2.58
2023-03-30T08:53:34.051Z,2.70
2023-03-30T08:56:21.660Z,3.08
2023-03-30T08:59:06.776Z,3.13
2023-03-30T09:01:48.612Z,3.40
2023-03-30T09:04:23.507Z,3.20
2023-03-30T09:06:53.646Z,3.42
2023-03-30T09:09:23.191Z,3.10
2023-03-30T09:12:15.994Z,3.35
2023-03-30T09:14:51.218Z,3.15
2023-03-30T09:20:25.363Z,2.90
2023-03-30T09:22:54.069Z,3.00
2023-03-30T09:25:38.607Z,3.50
2023-03-30T09:28:38.588Z,2.80
2023-03-30T09:31:38.036Z,3.53
2023-03-30T09:34:12.869Z,2.78
2023-03-30T09:36:54.786Z,3.00
2023-03-30T09:39:23.983Z,3.05
2023-03-30T09:42:15.101Z,3.10
2023-03-30T09:45:13.581Z,2.70
2023-03-30T09:47:43.481Z,2.85
2023-03-30T09:50:16.677Z,2.67
2023-03-30T09:52:59.936Z,3.13
2023-03-30T09:55:29.817Z,2.63
2023-03-30T09:58:10.913Z,2.70
2023-03-30T10:00:37.977Z,3.00
2023-03-30T10:03:07.063Z,2.70
2023-03-30T10:05:38.418Z,2.78
2023-03-30T10:08:25.000Z,2.75
2023-03-30T10:10:56.734Z,3.00
2023-03-30T10:13:37.515Z,2.72
2023-03-30T10:16:08.015Z,2.90
2023-03-30T10:18:41.386Z,2.85
2023-03-30T10:21:18.713Z,2.75
2023-03-30T10:23:47.216Z,2.33
2023-03-30T10:26:21.811Z,3.30
2023-03-30T10:29:04.523Z,3.00
2023-03-30T10:31:36.112Z,3.10
2023-03-30T10:34:05.298Z,2.60
2023-03-30T10:36:38.200Z,2.80
2023-03-30T10:39:27.623Z,2.88
2023-03-30T10:41:57.942Z,2.70
2023-03-30T10:44:30.586Z,2.92
2023-03-30T10:47:38.327Z,2.67
2023-03-30T10:50:25.781Z,2.63
2023-03-30T10:53:12.320Z,2.85
2023-03-30T10:55:51.131Z,2.33
2023-03-30T10:59:16.020Z,2.88
2023-03-30T11:02:14.391Z,2.88
2023-03-30T11:04:50.462Z,2.60
2023-03-30T11:07:29.805Z,2.75
2023-03-30T11:10:04.524Z,2.47
2023-03-30T11:12:39.336Z,2.55
2023-03-30T11:15:14.867Z,2.53
2023-03-30T11:17:48.229Z,2.00
2023-03-30T11:20:27.282Z,1.80
2023-03-30T11:23:01.284Z,2.10
2023-03-30T11:25:36.363Z,2.00
2023-03-30T11:28:25.897Z,2.28
2023-03-30T11:30:58.502Z,2.17
2023-03-30T11:33:39.668Z,1.88
2023-03-30T11:36:21.806Z,2.47
2023-03-30T11:39:03.916Z,2.17
2023-03-30T11:41:42.463Z,1.95
2023-03-30T11:44:13.698Z,2.15
2023-03-30T11:47:14.865Z,2.00
2023-03-30T11:49:56.683Z,2.08
2023-03-30T11:52:35.514Z,1.80
2023-03-30T11:55:29.695Z,2.00
2023-03-30T11:58:34.722Z,1.85
2023-03-30T12:01:15.776Z,1.90
2023-03-30T12:03:51.468Z,2.50
2023-03-30T12:06:49.703Z,1.67
2023-03-30T12:09:38.875Z,2.20
2023-03-30T12:12:33.513Z,2.10
2023-03-30T12:15:29.927Z,1.90
2023-03-30T12:18:20.054Z,1.92
2023-03-30T12:20:55.519Z,1.80
2023-03-30T12:23:33.512Z,1.38
2023-03-30T12:26:25.127Z,1.42
2023-03-30T12:31:49.765Z,3.25
2023-03-30T12:34:16.850Z,1.90
2023-03-30T12:36:49.304Z,2.20
2023-03-30T12:39:31.856Z,1.40
2023-03-30T12:42:34.527Z,1.70
2023-03-30T12:45:01.575Z,1.52
2023-03-30T12:47:33.706Z,1.40
2023-03-30T12:50:20.942Z,1.58
2023-03-30T12:53:05.382Z,2.08
2023-03-30T12:55:40.065Z,1.98
2023-03-30T12:58:26.623Z,1.40
2023-03-30T13:01:05.508Z,1.40
2023-03-30T13:03:36.174Z,1.60
2023-03-30T13:06:05.449Z,1.50
2023-03-30T13:08:38.943Z,1.40
2023-03-30T13:11:11.836Z,1.50
2023-03-30T13:13:55.738Z,1.30
2023-03-30T13:16:57.770Z,1.27
2023-03-30T13:19:33.463Z,1.15
2023-03-30T13:22:12.042Z,1.15
2023-03-30T13:24:57.766Z,1.00
2023-03-30T13:27:31.557Z,1.20
2023-03-30T13:29:59.560Z,1.20
2023-03-30T13:33:12.015Z,1.10
2023-03-30T13:36:06.119Z,1.00
2023-03-30T13:38:56.431Z,1.00
2023-03-30T13:41:42.788Z,1.00
2023-03-30T13:44:39.577Z,0.80
2023-03-30T13:47:28.030Z,0.80
2023-03-30T13:49:59.927Z,0.90
2023-03-30T13:52:38.330Z,1.10
2023-03-30T13:55:15.884Z,1.05
2023-03-30T13:57:44.101Z,1.02
2023-03-30T14:00:47.299Z,1.20
2023-03-30T14:03:47.864Z,0.80
2023-03-30T14:06:14.610Z,1.10
2023-03-30T14:08:44.855Z,0.80
2023-03-30T14:11:14.173Z,1.15
2023-03-30T14:13:41.180Z,0.98
2023-03-30T14:16:09.314Z,1.40
2023-03-30T14:18:36.071Z,0.80
2023-03-30T14:21:06.842Z,0.80
2023-03-30T14:23:51.286Z,0.80
2023-03-30T14:26:23.540Z,0.90
2023-03-30T14:28:56.427Z,0.70
2023-03-30T14:31:23.558Z,1.10
2023-03-30T14:33:50.333Z,1.77
2023-03-30T14:36:19.149Z,1.40
2023-03-30T14:38:48.373Z,1.40
2023-03-30T14:41:23.578Z,1.60
2023-03-30T14:46:19.151Z,1.65
2023-03-30T14:48:50.486Z,1.50
2023-03-30T14:51:26.399Z,1.48
2023-03-30T14:53:54.550Z,1.80
2023-03-30T14:56:22.878Z,1.25
2023-03-30T14:58:51.860Z,1.45
2023-03-30T15:01:31.258Z,1.02
2023-03-30T15:04:14.578Z,5.15
2023-03-30T15:06:41.437Z,1.73
2023-03-30T15:09:15.928Z,1.92
2023-03-30T15:11:45.449Z,0.98
2023-03-30T15:14:19.772Z,1.02
2023-03-30T15:16:53.292Z,3.10
2023-03-30T15:19:28.051Z,1.10
2023-03-30T15:21:58.492Z,1.80
2023-03-30T15:24:30.371Z,1.40
2023-03-30T15:27:02.794Z,1.58
2023-03-30T15:29:31.029Z,1.95
2023-03-30T15:32:05.349Z,2.45
2023-03-30T15:34:32.507Z,3.97
2023-03-30T15:36:59.315Z,1.20
2023-03-30T15:39:33.660Z,1.00
2023-03-30T15:42:05.965Z,1.20
2023-03-30T15:44:38.604Z,1.08
2023-03-30T15:47:14.024Z,1.23
2023-03-30T15:49:49.375Z,1.38
2023-03-30T15:52:24.238Z,1.75
2023-03-30T15:54:55.697Z,1.65
2023-03-30T15:57:28.233Z,1.52
2023-03-30T16:00:03.013Z,2.42
2023-03-30T16:02:32.716Z,1.33
2023-03-30T16:05:03.711Z,2.10
2023-03-30T16:07:31.794Z,1.60
2023-03-30T16:09:58.462Z,1.77
2023-03-30T16:12:30.965Z,1.55
2023-03-30T16:14:58.567Z,1.42
2023-03-30T16:17:25.628Z,1.40
2023-03-30T16:19:52.329Z,1.23
2023-03-30T16:22:18.943Z,1.20
2023-03-30T16:24:46.185Z,1.17
2023-03-30T16:27:13.074Z,1.35
2023-03-30T16:29:39.833Z,1.15
2023-03-30T16:32:06.719Z,1.83
2023-03-30T16:34:33.461Z,1.50
2023-03-30T16:37:00.158Z,1.30
2023-03-30T16:39:28.933Z,1.45
2023-03-30T16:41:56.215Z,1.30
2023-03-30T16:44:24.681Z,1.38
2023-03-30T16:46:52.119Z,1.35
2023-03-30T16:49:25.870Z,1.42
2023-03-30T16:51:55.292Z,1.00
2023-03-30T16:54:31.526Z,0.98
2023-03-30T16:56:59.906Z,1.30
2023-03-30T16:59:31.235Z,1.52
2023-03-30T17:01:58.737Z,1.10
2023-03-30T17:04:25.862Z,1.55
2023-03-30T17:06:54.450Z,2.00
2023-03-30T17:09:21.178Z,2.08
2023-03-30T17:11:48.905Z,1.85
2023-03-30T17:14:17.616Z,2.42
2023-03-30T17:16:44.361Z,2.15
2023-03-30T17:19:12.860Z,1.90
2023-03-30T17:21:43.426Z,2.35
2023-03-30T17:24:11.166Z,1.85
2023-03-30T17:26:38.985Z,1.55
2023-03-30T17:29:05.754Z,2.45
2023-03-30T17:31:32.426Z,1.70
2023-03-30T17:34:02.081Z,1.63
2023-03-30T17:36:29.151Z,1.42
2023-03-30T17:38:56.520Z,1.60
2023-03-30T17:41:23.319Z,1.20
2023-03-30T17:43:54.303Z,1.85
2023-03-30T17:46:21.155Z,1.45
2023-03-30T17:48:48.628Z,4.78
2023-03-30T17:51:15.311Z,5.15
2023-03-30T17:53:42.688Z,1.90
2023-03-30T17:56:12.709Z,2.28
2023-03-30T17:58:39.233Z,1.80
2023-03-30T18:01:08.236Z,1.33
2023-03-30T18:03:35.972Z,1.73
2023-03-30T18:06:02.693Z,1.30
2023-03-30T18:08:29.899Z,1.30
2023-03-30T18:11:01.101Z,1.60
2023-03-30T18:13:29.650Z,1.70
2023-03-30T18:15:58.363Z,1.50
2023-03-30T18:18:45.763Z,2.75
2023-03-30T18:21:13.462Z,3.33
2023-03-30T18:23:39.970Z,3.95
2023-03-30T18:26:11.249Z,4.78
2023-03-30T18:28:43.583Z,4.05
2023-03-30T18:31:10.935Z,3.70
2023-03-30T18:33:39.116Z,4.40
2023-03-30T18:36:07.653Z,3.25
2023-03-30T18:38:34.761Z,4.38
2023-03-30T18:41:01.665Z,4.20
2023-03-30T18:43:28.906Z,3.97
2023-03-30T18:46:00.823Z,3.45
2023-03-30T18:48:31.395Z,2.80
2023-03-30T18:50:58.089Z,3.30
2023-03-30T18:53:28.230Z,2.83
2023-03-30T18:56:05.096Z,2.15
2023-03-30T18:58:33.970Z,1.75
2023-03-30T19:01:03.481Z,4.70
2023-03-30T19:03:30.393Z,5.53
2023-03-30T19:05:57.158Z,3.80
2023-03-30T19:08:27.064Z,3.00
2023-03-30T19:10:57.546Z,3.03
2023-03-30T19:13:25.799Z,3.20
2023-03-30T19:15:53.001Z,2.65
2023-03-30T19:18:22.954Z,1.67
2023-03-30T19:20:50.672Z,1.85
2023-03-30T19:23:21.857Z,1.90
2023-03-30T19:25:49.053Z,1.45
2023-03-30T19:28:21.903Z,1.50
2023-03-30T19:30:48.774Z,2.15
2023-03-30T19:33:22.803Z,1.60
2023-03-30T19:35:52.521Z,1.27
2023-03-30T19:38:23.209Z,1.75
2023-03-30T19:40:49.873Z,1.35
2023-03-30T19:43:19.757Z,1.55
2023-03-30T19:45:51.432Z,2.00
2023-03-30T19:48:18.138Z,1.63
2023-03-30T19:50:44.755Z,1.45
2023-03-30T19:53:11.361Z,1.58
2023-03-30T19:55:39.138Z,1.20
2023-03-30T19:58:15.305Z,2.03
2023-03-30T20:00:49.333Z,1.38
2023-03-30T20:03:16.053Z,1.70
2023-03-30T20:05:52.380Z,1.30
2023-03-30T20:08:24.863Z,1.10
2023-03-30T20:10:54.006Z,1.42
2023-03-30T20:13:24.395Z,1.40
2023-03-30T20:15:58.040Z,1.50
2023-03-30T20:18:26.757Z,1.40
2023-03-30T20:20:53.333Z,1.40
2023-03-30T20:23:19.999Z,1.45
2023-03-30T20:25:49.240Z,1.95
2023-03-30T20:28:17.309Z,1.08
2023-03-30T20:30:43.892Z,1.63
2023-03-30T20:33:10.882Z,1.63
2023-03-30T20:35:38.180Z,1.40
2023-03-30T20:38:05.972Z,2.05
2023-03-30T20:40:32.730Z,1.45
2023-03-30T20:43:03.048Z,1.75
2023-03-30T20:45:31.039Z,1.27
2023-03-30T20:47:57.938Z,1.70
2023-03-30T20:50:24.531Z,0.95
2023-03-30T20:52:52.689Z,1.80
2023-03-30T20:55:19.368Z,1.42
2023-03-30T20:57:45.871Z,1.23
2023-03-30T21:00:13.539Z,1.30
2023-03-30T21:02:40.296Z,1.55
2023-03-30T21:05:08.423Z,1.80
2023-03-30T21:07:38.094Z,1.40
2023-03-30T21:10:05.134Z,1.40
2023-03-30T21:12:31.754Z,1.50
2023-03-30T21:14:58.288Z,1.60
2023-03-30T21:17:24.953Z,1.17
2023-03-30T21:19:51.501Z,1.48
2023-03-30T21:22:19.485Z,1.70
2023-03-30T21:24:46.164Z,1.35
2023-03-30T21:27:14.232Z,1.25
2023-03-30T21:29:41.411Z,1.50
2023-03-30T21:32:08.008Z,1.70
2023-03-30T21:34:34.582Z,1.20
2023-03-30T21:37:01.504Z,1.42
2023-03-30T21:39:28.161Z,1.77
2023-03-30T21:41:54.777Z,1.38
2023-03-30T21:44:21.496Z,1.70
2023-03-30T21:46:48.183Z,1.45
2023-03-30T21:49:14.818Z,1.40
2023-03-30T21:51:41.537Z,1.27
2023-03-30T21:54:09.261Z,1.50
2023-03-30T21:56:35.918Z,1.13
2023-03-30T21:59:02.532Z,1.42
2023-03-30T22:01:29.157Z,1.40
2023-03-30T22:03:56.297Z,1.30
2023-03-30T22:06:23.768Z,1.35
2023-03-30T22:08:50.680Z,1.65
2023-03-30T22:11:23.766Z,1.20
2023-03-30T22:13:52.023Z,1.60
2023-03-30T22:16:28.039Z,1.42
2023-03-30T22:18:54.930Z,1.73
2023-03-30T22:21:25.104Z,1.70
2023-03-30T22:23:54.420Z,1.83
2023-03-30T22:26:22.131Z,1.40
2023-03-30T22:28:48.830Z,1.30
2023-03-30T22:31:15.773Z,1.40
2023-03-30T22:33:42.636Z,1.20
2023-03-30T22:36:20.331Z,1.40
2023-03-30T22:38:47.945Z,1.40
2023-03-30T22:41:14.974Z,1.35
2023-03-30T22:43:41.588Z,1.52
2023-03-30T22:46:08.508Z,1.35
2023-03-30T22:48:35.558Z,1.52
2023-03-30T22:51:03.847Z,1.20
2023-03-30T22:53:31.681Z,1.75
2023-03-30T22:55:58.457Z,1.50
2023-03-30T22:58:25.272Z,1.52
2023-03-30T23:00:52.025Z,1.73
2023-03-30T23:03:18.850Z,1.40
2023-03-30T23:05:52.110Z,1.15
2023-03-30T23:08:18.662Z,1.70
2023-03-30T23:10:45.775Z,1.55
2023-03-30T23:13:12.427Z,1.58
2023-03-30T23:15:39.079Z,1.63
2023-03-30T23:18:05.965Z,1.58
2023-03-30T23:20:32.522Z,1.70
2023-03-30T23:22:59.061Z,1.40
2023-03-30T23:25:26.498Z,1.60
2023-03-30T23:27:53.032Z,1.48
2023-03-30T23:30:19.676Z,1.50
2023-03-30T23:32:46.275Z,1.63
2023-03-30T23:35:13.021Z,1.42
2023-03-30T23:37:40.176Z,1.42
2023-03-30T23:40:08.213Z,1.42
2023-03-30T23:42:34.774Z,1.10
2023-03-30T23:45:01.399Z,1.60
2023-03-30T23:47:28.056Z,1.13
2023-03-30T23:49:54.734Z,1.33
2023-03-30T23:52:21.270Z,1.77
2023-03-30T23:54:52.075Z,1.85
2023-03-30T23:57:19.856Z,1.65
2023-03-30T23:59:46.847Z,1.52
